Time;durP1;ratioP1;P1;durP2;ratioP2;P2;SDS_P1;SDS_P2;PMS_P1;PMS_P2;Temp;Humidity;BMP_temperature;BMP_pressure;BME280_temperature;BME280_humidity;BME280_pressure;Samples;Min_cycle;Max_cycle;Signal;HPM_P1;HPM_P2
2021/12/15 00:00:51;;;;;;;235.90;178.32;;;20.30;46.80;;;;;;4748848;58;21005;-34
2021/12/15 00:05:52;;;;;;;250.43;195.40;;;20.30;46.70;;;;;;4949882;55;21098;-34
2021/12/15 00:10:54;;;;;;;234.75;180.20;;;20.30;46.60;;;;;;4831283;55;21069;-32
2021/12/15 00:15:55;;;;;;;242.90;189.37;;;20.40;46.70;;;;;;4878878;55;22002;-35
2021/12/15 00:20:56;;;;;;;240.07;184.18;;;20.30;46.70;;;;;;5006831;55;21002;-31
2021/12/15 00:25:57;;;;;;;241.63;188.05;;;20.30;46.60;;;;;;4932085;54;21628;-36
2021/12/15 00:54:27;;;;;;;236.48;181.02;;;20.30;46.50;;;;;;4747418;55;21049;-35
2021/12/15 00:59:29;;;;;;;242.70;181.50;;;20.30;46.40;;;;;;4845481;55;20997;-35
2021/12/15 01:05:08;;;;;;;239.90;185.23;;;20.30;46.40;;;;;;4968391;55;21005;-35
2021/12/15 01:10:13;;;;;;;238.12;180.45;;;20.30;47.10;;;;;;5186426;55;21065;-35
2021/12/15 01:20:54;;;;;;;231.52;176.02;;;20.30;46.30;;;;;;4781737;55;21548;-36
2021/12/15 01:26:03;;;;;;;236.27;178.23;;;20.30;46.40;;;;;;4784620;55;21098;-33
2021/12/15 01:31:06;;;;;;;240.12;182.68;;;20.30;46.30;;;;;;4815286;55;21025;-36
2021/12/15 01:36:08;;;;;;;237.65;180.07;;;20.30;46.30;;;;;;4939930;55;21006;-34
2021/12/15 01:41:19;;;;;;;238.35;179.70;;;20.30;46.20;;;;;;5023568;55;20981;-33
2021/12/15 01:51:42;;;;;;;231.75;175.60;;;20.30;46.10;;;;;;4747265;55;21026;-34
2021/12/15 01:56:44;;;;;;;229.07;176.73;;;20.20;46.10;;;;;;4783840;55;21053;-28
2021/12/15 02:01:46;;;;;;;231.32;174.10;;;20.20;46.10;;;;;;4813336;55;21571;-35
2021/12/15 02:06:49;;;;;;;223.82;169.62;;;20.30;46.10;;;;;;4818281;55;20997;-32
2021/12/15 02:11:49;;;;;;;223.52;168.60;;;20.30;46.20;;;;;;4946386;55;21065;-31
2021/12/15 02:16:50;;;;;;;227.25;169.60;;;20.20;46.10;;;;;;4837249;54;21041;-29
2021/12/15 02:21:53;;;;;;;229.20;173.95;;;20.20;46.00;;;;;;4825130;55;21508;-35
2021/12/15 02:26:58;;;;;;;224.98;167.70;;;20.20;46.00;;;;;;4880458;55;21576;-33
2021/12/15 02:32:18;;;;;;;221.52;166.82;;;20.20;46.00;;;;;;5032787;55;21481;-32
2021/12/15 02:37:20;;;;;;;227.77;169.40;;;20.20;45.90;;;;;;4893029;55;21540;-35
2021/12/15 02:42:31;;;;;;;214.73;161.45;;;20.20;46.50;;;;;;4748299;58;21476;-34
2021/12/15 02:47:32;;;;;;;221.95;165.55;;;20.20;45.90;;;;;;4748287;58;21105;-33
2021/12/15 02:52:35;;;;;;;217.37;161.52;;;20.20;45.90;;;;;;4951398;54;21512;-35
2021/12/15 02:57:36;;;;;;;225.95;166.68;;;20.20;45.80;;;;;;4770438;55;21025;-35
2021/12/15 03:03:08;;;;;;;211.20;159.63;;;20.20;45.80;;;;;;4855465;55;21013;-34
2021/12/15 03:08:23;;;;;;;214.73;158.90;;;20.20;45.80;;;;;;4789333;55;21457;-33
2021/12/15 03:18:44;;;;;;;211.45;153.18;;;20.20;45.80;;;;;;4747882;58;21472;-35
2021/12/15 03:24:00;;;;;;;210.82;155.87;;;20.20;45.80;;;;;;4748287;58;21488;-36
2021/12/15 03:35:18;;;;;;;200.40;148.13;;;20.20;45.70;;;;;;4747890;55;21037;-35
2021/12/15 03:40:33;;;;;;;208.38;153.70;;;20.20;45.60;;;;;;4887315;55;21504;-34
2021/12/15 03:45:42;;;;;;;206.50;151.65;;;20.20;45.70;;;;;;4818460;55;21579;-30
2021/12/15 03:50:44;;;;;;;197.60;145.73;;;20.20;45.70;;;;;;4802987;55;21010;-35
2021/12/15 03:55:45;;;;;;;205.07;149.60;;;20.10;45.60;;;;;;4754562;55;20994;-36
2021/12/15 04:00:52;;;;;;;201.23;148.13;;;20.20;45.60;;;;;;4748356;58;21049;-32
2021/12/15 04:05:58;;;;;;;205.95;152.07;;;20.20;45.60;;;;;;4995502;55;21073;-32
2021/12/15 04:10:59;;;;;;;196.73;147.48;;;20.20;45.60;;;;;;4805836;55;21069;-34
2021/12/15 04:16:06;;;;;;;199.02;149.48;;;20.20;45.60;;;;;;5234214;55;20998;-36
2021/12/15 04:21:07;;;;;;;189.43;141.93;;;20.10;45.50;;;;;;5194665;55;21492;-34
2021/12/15 04:26:08;;;;;;;199.12;145.65;;;20.10;45.50;;;;;;4856555;55;21085;-38
2021/12/15 04:31:12;;;;;;;192.82;143.00;;;20.10;45.50;;;;;;4747630;55;21061;-34
2021/12/15 04:36:14;;;;;;;182.65;137.27;;;20.10;45.50;;;;;;5234666;55;20997;-31
2021/12/15 04:41:19;;;;;;;189.00;139.95;;;20.10;45.50;;;;;;4765240;55;21108;-34
2021/12/15 04:46:20;;;;;;;197.95;144.82;;;20.10;46.00;;;;;;4902555;55;21532;-34
2021/12/15 04:51:22;;;;;;;187.93;138.77;;;20.10;45.50;;;;;;4787370;54;21005;-33
2021/12/15 04:56:24;;;;;;;189.62;139.50;;;20.10;45.50;;;;;;4748470;58;21069;-33
2021/12/15 05:01:25;;;;;;;178.35;132.15;;;20.10;45.50;;;;;;4819994;55;21520;-34
2021/12/15 05:06:26;;;;;;;181.57;137.18;;;20.10;45.50;;;;;;5234628;55;21010;-36
2021/12/15 05:11:27;;;;;;;185.98;139.75;;;20.10;45.50;;;;;;4747576;58;21006;-35
2021/12/15 05:16:28;;;;;;;191.73;141.48;;;20.10;45.50;;;;;;4767604;55;21037;-29
2021/12/15 05:21:30;;;;;;;179.70;131.90;;;20.10;45.60;;;;;;4748396;58;20990;-35
2021/12/15 05:26:31;;;;;;;178.77;133.65;;;20.10;45.60;;;;;;4867589;55;21500;-35
2021/12/15 05:31:33;;;;;;;173.25;130.12;;;20.10;45.60;;;;;;4821267;55;20993;-34
2021/12/15 05:36:34;;;;;;;175.45;131.07;;;20.10;45.60;;;;;;5042442;55;21547;-36
2021/12/15 05:41:35;;;;;;;179.30;134.23;;;20.10;45.60;;;;;;4956707;54;21069;-31
2021/12/15 05:46:36;;;;;;;173.75;132.50;;;20.10;45.60;;;;;;4751447;55;20985;-35
2021/12/15 05:51:38;;;;;;;174.70;128.30;;;20.10;46.30;;;;;;4747976;58;21638;-34
2021/12/15 05:56:39;;;;;;;172.37;129.80;;;20.10;45.80;;;;;;4921041;55;20993;-35
2021/12/15 06:01:40;;;;;;;173.93;131.37;;;20.10;45.90;;;;;;4869891;55;21096;-35
2021/12/15 06:06:42;;;;;;;174.48;131.82;;;20.00;45.80;;;;;;4758326;55;21049;-35
2021/12/15 06:11:48;;;;;;;171.90;129.75;;;20.10;45.90;;;;;;4747801;58;21093;-33
2021/12/15 06:16:59;;;;;;;165.17;128.10;;;20.10;46.00;;;;;;4787082;55;21496;-33
2021/12/15 06:22:00;;;;;;;162.93;121.13;;;20.10;46.00;;;;;;5000934;55;20998;-35
2021/12/15 06:27:07;;;;;;;166.52;127.05;;;20.10;46.10;;;;;;4747898;58;21089;-34
2021/12/15 06:32:08;;;;;;;168.30;125.35;;;20.00;46.00;;;;;;4751881;55;21460;-35
2021/12/15 06:37:10;;;;;;;166.20;118.68;;;20.10;46.10;;;;;;4747945;58;21081;-35
2021/12/15 06:42:11;;;;;;;157.30;117.22;;;20.00;46.70;;;;;;4868095;55;21100;-35
2021/12/15 06:59:06;;;;;;;159.07;120.78;;;20.10;46.10;;;;;;4747938;58;21503;-30
2021/12/15 07:04:07;;;;;;;149.77;109.60;;;20.00;46.10;;;;;;4748219;58;21053;-33
2021/12/15 07:09:08;;;;;;;152.98;115.43;;;20.00;46.10;;;;;;4986218;54;21010;-35
2021/12/15 07:14:10;;;;;;;155.40;119.95;;;20.00;46.10;;;;;;4807115;55;21548;-33
2021/12/15 07:19:21;;;;;;;159.27;121.55;;;20.10;46.10;;;;;;4748229;58;21106;-35
2021/12/15 07:24:22;;;;;;;164.62;123.68;;;20.00;46.00;;;;;;4748009;58;21508;-34
2021/12/15 07:29:23;;;;;;;159.90;123.38;;;20.00;46.10;;;;;;5204841;54;21098;-31
2021/12/15 07:34:24;;;;;;;154.43;119.35;;;20.00;46.00;;;;;;4910758;54;20985;-34
2021/12/15 07:39:25;;;;;;;158.43;118.82;;;20.00;46.10;;;;;;5234123;55;21097;-35
2021/12/15 07:44:26;;;;;;;153.95;120.10;;;20.00;46.00;;;;;;4817087;55;20986;-34
2021/12/15 07:49:28;;;;;;;163.68;123.70;;;20.00;46.10;;;;;;4809627;55;21005;-30
2021/12/15 07:54:32;;;;;;;164.45;123.53;;;20.00;46.10;;;;;;4748098;58;21005;-36
2021/12/15 07:59:33;;;;;;;153.77;117.60;;;20.00;46.10;;;;;;4748378;58;21532;-29
2021/12/15 08:04:34;;;;;;;237.63;167.27;;;20.00;46.10;;;;;;4747600;58;21019;-45
2021/12/15 08:09:35;;;;;;;264.80;187.15;;;20.00;44.80;;;;;;4747386;58;21069;-32
2021/12/15 08:14:37;;;;;;;270.73;190.40;;;19.90;43.60;;;;;;4748232;55;20994;-38
2021/12/15 08:19:37;;;;;;;261.90;182.00;;;19.80;43.10;;;;;;4786000;55;21519;-35
2021/12/15 08:24:38;;;;;;;240.62;166.40;;;19.90;44.20;;;;;;4747286;58;21084;-39
2021/12/15 08:29:39;;;;;;;232.02;164.25;;;20.10;44.70;;;;;;4913064;54;21088;-38
2021/12/15 08:34:40;;;;;;;228.57;158.57;;;20.40;44.70;;;;;;4968278;55;21065;-36
2021/12/15 08:39:43;;;;;;;217.45;153.15;;;20.60;44.80;;;;;;4820063;54;21077;-37
2021/12/15 08:44:44;;;;;;;225.30;154.25;;;20.70;44.80;;;;;;4945714;55;21077;-34
2021/12/15 08:49:45;;;;;;;214.43;153.27;;;20.90;45.20;;;;;;4749478;54;21029;-41
2021/12/15 08:54:46;;;;;;;210.95;147.20;;;21.00;45.20;;;;;;4760885;54;21463;-37
2021/12/15 08:59:47;;;;;;;211.27;149.32;;;21.10;45.30;;;;;;4777346;55;21045;-37
2021/12/15 09:04:47;;;;;;;219.35;155.63;;;21.20;45.50;;;;;;5084411;55;21487;-36
2021/12/15 09:09:48;;;;;;;218.85;155.52;;;21.20;45.50;;;;;;4790106;55;21059;-37
2021/12/15 09:14:50;;;;;;;218.20;150.07;;;21.30;45.50;;;;;;4796469;54;21464;-36
2021/12/15 09:19:50;;;;;;;209.73;151.18;;;21.40;45.50;;;;;;4786860;55;20998;-37
2021/12/15 09:24:51;;;;;;;213.50;152.95;;;21.50;45.50;;;;;;4877926;55;21441;-36
2021/12/15 09:29:52;;;;;;;213.80;152.18;;;21.50;45.70;;;;;;4778149;54;21101;-37
2021/12/15 09:34:54;;;;;;;209.50;149.43;;;21.60;45.80;;;;;;4747726;58;20986;-37
2021/12/15 09:39:56;;;;;;;212.70;156.32;;;21.70;46.00;;;;;;4776505;55;21596;-37
2021/12/15 09:45:16;;;;;;;209.02;151.07;;;21.70;46.10;;;;;;4950670;55;21581;-38
2021/12/15 10:06:27;;;;;;;217.73;152.25;;;21.90;46.80;;;;;;4860255;55;21595;-39
2021/12/15 10:11:55;;;;;;;211.43;152.98;;;21.90;46.70;;;;;;4795566;55;21476;-31
2021/12/15 10:22:44;;;;;;;212.50;153.35;;;22.10;46.90;;;;;;4747782;55;21073;-37
2021/12/15 10:28:04;;;;;;;217.43;156.02;;;22.10;47.00;;;;;;4778904;55;21516;-37
2021/12/15 10:33:12;;;;;;;208.95;150.80;;;22.20;47.00;;;;;;4851952;55;21536;-34
2021/12/15 10:38:30;;;;;;;212.02;153.40;;;22.20;47.00;;;;;;4906674;55;21041;-38
2021/12/15 10:43:37;;;;;;;217.52;156.32;;;22.20;47.10;;;;;;4830682;55;21420;-39
2021/12/15 10:48:54;;;;;;;228.68;162.85;;;22.20;47.20;;;;;;4823590;55;21093;-37
2021/12/15 10:53:58;;;;;;;211.70;150.60;;;22.20;47.00;;;;;;4865244;55;21069;-36
2021/12/15 10:59:04;;;;;;;240.98;176.23;;;22.30;46.90;;;;;;4951717;55;21013;-39
2021/12/15 11:06:10;;;;;;;255.35;189.25;;;22.20;46.60;;;;;;4910583;55;21121;-37
2021/12/15 11:11:28;;;;;;;258.02;193.98;;;22.30;46.40;;;;;;4747327;58;21021;-39
2021/12/15 11:16:32;;;;;;;260.15;192.55;;;22.30;46.50;;;;;;4918933;55;21452;-38
2021/12/15 11:21:33;;;;;;;253.27;190.18;;;22.40;46.70;;;;;;4809458;55;21029;-37
2021/12/15 11:26:33;;;;;;;260.25;196.87;;;22.40;46.70;;;;;;4746898;58;21140;-37
2021/12/15 11:31:36;;;;;;;257.45;194.43;;;22.40;46.80;;;;;;4802348;54;21032;-36
2021/12/15 11:36:44;;;;;;;256.90;190.12;;;22.40;46.90;;;;;;5100762;55;21524;-38
2021/12/15 11:41:51;;;;;;;253.00;191.25;;;22.50;47.10;;;;;;4747939;58;21603;-35
2021/12/15 11:46:58;;;;;;;250.07;189.37;;;22.50;47.20;;;;;;4899764;55;21068;-37
2021/12/15 11:52:00;;;;;;;;;;;22.50;47.30;;;;;;4874354;55;21310;-36
2021/12/15 11:57:23;;;;;;;258.60;190.93;;;22.60;47.40;;;;;;4863846;55;20128;-37
2021/12/15 12:02:47;;;;;;;247.63;187.10;;;22.60;47.50;;;;;;4933780;55;20986;-32
2021/12/15 12:07:58;;;;;;;256.05;191.25;;;22.60;47.60;;;;;;5135081;55;21077;-37
2021/12/15 12:13:08;;;;;;;253.00;186.70;;;22.60;47.60;;;;;;4828501;55;21555;-39
2021/12/15 12:18:16;;;;;;;253.88;182.35;;;22.60;47.70;;;;;;4747528;58;21524;-38
2021/12/15 12:23:29;;;;;;;250.95;192.10;;;22.60;47.80;;;;;;4747730;58;20994;-34
2021/12/15 12:28:36;;;;;;;254.25;190.25;;;22.70;47.90;;;;;;4913277;54;21058;-39
2021/12/15 12:33:37;;;;;;;;;;;22.70;48.00;;;;;;4795199;55;20993;-39
2021/12/15 12:38:41;;;;;;;258.52;194.98;;;22.80;48.20;;;;;;4759158;55;20109;-34
2021/12/15 12:43:52;;;;;;;272.05;205.80;;;22.80;47.90;;;;;;4794909;55;20994;-40
2021/12/15 12:59:51;;;;;;;257.52;194.07;;;22.70;47.50;;;;;;4805248;55;21030;-40
2021/12/15 13:04:52;;;;;;;270.30;204.52;;;22.70;47.30;;;;;;4785892;55;21439;-41
2021/12/15 13:09:52;;;;;;;267.00;207.12;;;22.70;47.20;;;;;;4747988;58;21070;-38
2021/12/15 13:14:58;;;;;;;266.17;201.95;;;22.60;47.00;;;;;;4782745;55;21021;-44
2021/12/15 13:20:00;;;;;;;258.40;198.18;;;22.70;46.90;;;;;;4919498;55;20994;-36
2021/12/15 13:31:35;;;;;;;257.60;196.37;;;22.70;46.90;;;;;;4747382;55;21025;-34
2021/12/15 13:36:41;;;;;;;262.23;198.07;;;22.70;47.00;;;;;;4747679;58;21464;-38
2021/12/15 13:42:01;;;;;;;257.50;195.12;;;22.80;47.20;;;;;;4839271;55;21468;-38
2021/12/15 13:47:42;;;;;;;255.35;194.73;;;22.80;47.30;;;;;;4747625;58;21599;-28
2021/12/15 13:52:45;;;;;;;257.52;192.30;;;22.90;47.40;;;;;;4814367;55;21034;-45
2021/12/15 13:58:01;;;;;;;253.77;194.18;;;22.90;47.50;;;;;;4792169;55;21049;-38
2021/12/15 14:03:48;;;;;;;252.35;191.18;;;22.90;47.60;;;;;;4816788;55;20998;-47
2021/12/15 14:08:53;;;;;;;242.62;188.25;;;22.90;47.70;;;;;;4758466;55;21055;-42
2021/12/15 14:14:01;;;;;;;245.85;187.98;;;22.90;47.80;;;;;;4778260;55;21062;-38
2021/12/15 14:19:06;;;;;;;238.70;183.68;;;23.00;48.00;;;;;;4866654;55;21449;-38
2021/12/15 14:24:08;;;;;;;244.00;187.30;;;23.00;48.00;;;;;;4955701;55;20993;-38
2021/12/15 14:29:19;;;;;;;252.10;193.35;;;23.00;48.10;;;;;;4967721;54;21046;-39
2021/12/15 14:34:28;;;;;;;243.00;186.95;;;23.00;48.30;;;;;;4865315;55;21507;-38
2021/12/15 14:39:34;;;;;;;245.20;186.77;;;22.90;48.50;;;;;;4864137;55;20990;-36
2021/12/15 14:44:40;;;;;;;251.87;193.30;;;22.90;48.70;;;;;;4911057;55;21496;-38
2021/12/15 14:49:47;;;;;;;239.43;181.30;;;22.80;48.90;;;;;;4747441;55;21524;-35
2021/12/15 14:54:51;;;;;;;235.75;179.80;;;22.80;49.00;;;;;;4829166;55;21085;-45
2021/12/15 14:59:56;;;;;;;237.98;182.43;;;22.70;49.20;;;;;;5140612;55;21129;-42
2021/12/15 15:05:09;;;;;;;233.50;180.35;;;22.70;49.40;;;;;;4812227;55;21512;-38
2021/12/15 15:10:13;;;;;;;238.85;185.43;;;22.70;49.70;;;;;;4836429;55;21279;-37
2021/12/15 15:15:25;;;;;;;245.05;185.25;;;22.60;49.40;;;;;;4869991;55;20989;-38
2021/12/15 15:20:39;;;;;;;249.15;188.77;;;22.50;49.50;;;;;;4921703;55;21551;-39
2021/12/15 15:25:43;;;;;;;247.73;188.50;;;22.40;49.50;;;;;;5013396;55;21058;-47
2021/12/15 15:30:45;;;;;;;230.25;175.43;;;22.40;49.60;;;;;;4772914;55;21026;-40
2021/12/15 15:35:54;;;;;;;236.48;182.68;;;22.30;49.30;;;;;;4748043;58;20989;-36
2021/12/15 15:40:58;;;;;;;242.13;183.40;;;22.30;49.90;;;;;;5007472;55;20994;-36
2021/12/15 15:46:00;;;;;;;231.68;175.90;;;22.20;49.10;;;;;;4747888;58;21539;-40
2021/12/15 15:52:04;;;;;;;233.87;176.98;;;22.20;49.10;;;;;;4862061;55;21021;-37
2021/12/15 15:57:07;;;;;;;234.30;177.52;;;22.10;49.00;;;;;;4965860;55;21532;-38
2021/12/15 16:02:08;;;;;;;244.32;185.70;;;22.10;48.90;;;;;;4827226;55;20986;-39
2021/12/15 16:07:10;;;;;;;262.63;197.87;;;22.00;48.40;;;;;;5067724;55;20993;-40
2021/12/15 16:12:13;;;;;;;250.00;189.82;;;21.90;48.10;;;;;;4948751;55;21010;-40
2021/12/15 16:17:25;;;;;;;263.08;202.18;;;21.90;48.20;;;;;;5101975;55;21970;-35
2021/12/15 16:27:55;;;;;;;256.35;194.95;;;21.80;48.20;;;;;;4911427;55;21555;-41
2021/12/15 16:33:00;;;;;;;257.20;199.00;;;21.70;48.20;;;;;;5117437;55;21058;-40
2021/12/15 16:44:58;;;;;;;264.45;205.68;;;21.70;48.20;;;;;;4998009;55;21046;-40
2021/12/15 16:50:05;;;;;;;264.30;199.45;;;21.60;48.30;;;;;;4853897;55;21010;-39
2021/12/15 16:55:16;;;;;;;266.75;206.68;;;21.60;48.30;;;;;;4876745;55;21479;-36
2021/12/15 17:00:25;;;;;;;265.42;204.05;;;21.50;48.20;;;;;;4824839;55;21017;-38
2021/12/15 17:05:46;;;;;;;276.52;217.18;;;21.50;48.20;;;;;;5216446;55;21061;-37
2021/12/15 17:11:04;;;;;;;269.30;204.52;;;21.40;48.20;;;;;;4987674;55;21005;-39
2021/12/15 17:16:09;;;;;;;274.12;215.32;;;21.40;48.20;;;;;;4795640;55;21460;-39
2021/12/15 17:21:24;;;;;;;277.08;215.02;;;21.40;48.20;;;;;;4839505;55;21580;-40
2021/12/15 17:26:32;;;;;;;263.92;201.57;;;21.40;48.20;;;;;;4938311;55;21519;-39
2021/12/15 17:31:41;;;;;;;275.23;210.18;;;21.40;48.30;;;;;;4761280;55;21005;-35
2021/12/15 17:36:46;;;;;;;286.30;221.80;;;21.30;48.20;;;;;;4996002;55;21523;-39
2021/12/15 17:42:40;;;;;;;279.67;217.77;;;21.30;48.20;;;;;;4748105;58;21072;-40
2021/12/15 17:47:50;;;;;;;283.23;218.55;;;21.30;48.20;;;;;;4883672;54;21005;-39
2021/12/15 17:53:13;;;;;;;276.98;208.93;;;21.30;48.10;;;;;;4947221;55;21010;-42
2021/12/15 17:58:23;;;;;;;288.92;221.40;;;21.20;48.10;;;;;;4748004;58;21459;-40
2021/12/15 18:03:31;;;;;;;274.95;212.43;;;21.20;48.10;;;;;;4821288;55;21081;-37
2021/12/15 18:08:32;;;;;;;279.58;215.43;;;21.20;48.10;;;;;;4764601;55;21103;-37
2021/12/15 18:13:55;;;;;;;284.95;225.93;;;21.20;48.10;;;;;;4847187;55;21033;-38
2021/12/15 18:18:57;;;;;;;292.67;223.98;;;21.20;48.20;;;;;;4898240;55;20997;-40
2021/12/15 18:24:00;;;;;;;284.77;218.55;;;21.10;48.10;;;;;;4876328;55;21558;-40
2021/12/15 18:29:01;;;;;;;287.27;218.15;;;21.20;48.20;;;;;;4746562;58;21042;-41
2021/12/15 18:34:04;;;;;;;263.73;198.13;;;21.10;48.10;;;;;;4927932;55;21065;-36
2021/12/15 18:39:08;;;;;;;290.27;225.70;;;21.10;48.10;;;;;;4860614;55;21007;-41
2021/12/15 18:44:09;;;;;;;291.95;228.62;;;21.10;48.10;;;;;;4854321;55;20990;-40
2021/12/15 18:49:18;;;;;;;283.02;219.80;;;21.10;48.10;;;;;;4901016;55;21512;-39
2021/12/15 18:54:21;;;;;;;292.55;225.45;;;21.10;48.10;;;;;;4761336;55;21559;-39
2021/12/15 18:59:22;;;;;;;284.62;220.18;;;21.10;48.10;;;;;;4865569;55;21022;-39
2021/12/15 19:04:28;;;;;;;291.63;225.45;;;21.10;48.10;;;;;;4815752;55;21483;-35
2021/12/15 19:09:31;;;;;;;292.37;231.63;;;21.00;48.10;;;;;;5183520;55;21072;-39
2021/12/15 19:14:33;;;;;;;295.02;229.02;;;21.00;48.00;;;;;;4827968;55;21001;-39
2021/12/15 19:19:38;;;;;;;289.40;216.25;;;21.00;48.00;;;;;;4776516;55;21009;-38
2021/12/15 19:24:40;;;;;;;283.30;219.80;;;21.00;48.00;;;;;;4809545;55;21054;-38
2021/12/15 19:29:43;;;;;;;302.33;233.13;;;21.00;48.00;;;;;;4748060;58;21116;-38
2021/12/15 19:34:47;;;;;;;302.67;240.60;;;21.00;48.00;;;;;;4748022;58;21061;-39
2021/12/15 19:39:48;;;;;;;293.55;226.00;;;21.00;48.00;;;;;;5099468;55;21559;-38
2021/12/15 19:44:49;;;;;;;291.98;227.02;;;20.90;47.90;;;;;;4889602;54;21005;-39
2021/12/15 19:49:50;;;;;;;306.25;235.30;;;20.90;47.90;;;;;;4827896;55;21056;-40
2021/12/15 19:54:51;;;;;;;306.90;237.65;;;21.00;48.10;;;;;;4900399;55;20982;-39
2021/12/15 19:59:52;;;;;;;299.40;236.35;;;21.00;47.90;;;;;;4882681;55;20977;-42
2021/12/15 20:04:53;;;;;;;312.27;244.68;;;20.90;47.90;;;;;;4821542;55;21552;-39
2021/12/15 20:09:54;;;;;;;306.95;238.37;;;20.90;47.90;;;;;;4903071;55;21021;-39
2021/12/15 20:14:57;;;;;;;310.85;242.10;;;20.90;47.90;;;;;;4748440;58;21016;-39
2021/12/15 20:19:58;;;;;;;289.60;217.37;;;20.90;47.80;;;;;;4806405;55;21045;-38
2021/12/15 20:24:59;;;;;;;313.77;247.30;;;20.90;47.80;;;;;;4789358;55;21488;-38
2021/12/15 20:30:04;;;;;;;306.05;234.77;;;20.90;47.80;;;;;;5005317;55;21017;-39
2021/12/15 20:35:06;;;;;;;295.48;222.80;;;20.80;47.70;;;;;;4861539;55;21456;-37
2021/12/15 20:40:09;;;;;;;299.05;230.85;;;20.90;47.80;;;;;;5055781;55;20989;-40
2021/12/15 20:45:12;;;;;;;296.75;225.48;;;20.80;47.70;;;;;;4748634;58;20982;-39
2021/12/15 20:50:16;;;;;;;305.48;237.38;;;20.90;47.80;;;;;;4879624;55;21022;-38
2021/12/15 20:55:20;;;;;;;316.98;247.48;;;20.80;47.70;;;;;;4792741;55;20994;-42
2021/12/15 21:00:28;;;;;;;310.58;237.75;;;20.80;47.70;;;;;;4748767;58;21017;-39
2021/12/15 21:06:01;;;;;;;293.50;226.95;;;20.80;47.60;;;;;;4963558;55;21535;-39
2021/12/15 21:11:45;;;;;;;295.83;230.80;;;20.80;47.60;;;;;;4801000;55;21013;-41
2021/12/15 21:16:47;;;;;;;308.27;241.85;;;20.80;47.60;;;;;;5234837;55;21045;-37
2021/12/15 21:21:51;;;;;;;304.52;235.60;;;20.80;47.60;;;;;;4872825;55;21060;-39
2021/12/15 21:26:54;;;;;;;307.33;241.77;;;20.80;47.50;;;;;;4748117;58;21061;-39
2021/12/15 21:31:55;;;;;;;304.52;239.05;;;20.80;47.50;;;;;;4812753;55;21018;-41
2021/12/15 21:36:59;;;;;;;315.23;244.02;;;20.80;47.50;;;;;;4748718;58;21002;-40
2021/12/15 21:42:02;;;;;;;302.92;236.12;;;20.80;47.60;;;;;;4748618;58;21560;-40
2021/12/15 21:47:04;;;;;;;311.95;244.45;;;20.80;47.40;;;;;;4798461;55;20989;-39
2021/12/15 21:52:06;;;;;;;309.58;241.48;;;20.70;47.30;;;;;;4747834;58;21052;-37
2021/12/15 21:57:09;;;;;;;294.80;219.35;;;20.70;47.40;;;;;;4809986;55;20990;-39
2021/12/15 22:02:12;;;;;;;296.12;229.13;;;20.70;47.40;;;;;;4793595;55;22213;-38
2021/12/15 22:07:13;;;;;;;292.13;224.15;;;20.70;47.40;;;;;;4906769;55;21488;-41
2021/12/15 22:12:16;;;;;;;309.15;239.35;;;20.70;47.30;;;;;;4747971;55;21065;-39
2021/12/15 22:17:18;;;;;;;307.23;236.07;;;20.70;47.30;;;;;;4748625;58;21468;-42
2021/12/15 22:22:20;;;;;;;312.20;241.85;;;20.70;47.30;;;;;;4887193;55;21008;-34
2021/12/15 22:27:21;;;;;;;302.02;234.32;;;20.70;47.20;;;;;;4749759;55;21025;-38
2021/12/15 22:32:26;;;;;;;314.25;242.35;;;20.70;47.20;;;;;;5019490;54;21085;-38
2021/12/15 22:37:27;;;;;;;288.02;225.32;;;20.70;47.20;;;;;;4825265;55;21528;-42
2021/12/15 22:42:28;;;;;;;304.75;237.12;;;20.70;47.30;;;;;;4937049;55;21005;-41
2021/12/15 22:47:29;;;;;;;300.98;232.90;;;20.70;47.20;;;;;;4896863;55;21053;-40
2021/12/15 22:52:30;;;;;;;293.80;226.23;;;20.60;47.10;;;;;;4747514;58;21017;-40
2021/12/15 22:57:32;;;;;;;301.92;230.43;;;20.60;47.00;;;;;;4801718;55;21065;-39
2021/12/15 23:02:33;;;;;;;309.87;243.30;;;20.70;47.10;;;;;;4811315;55;21002;-41
2021/12/15 23:07:35;;;;;;;306.83;240.00;;;20.60;47.00;;;;;;5022316;55;21057;-39
2021/12/15 23:12:35;;;;;;;290.20;220.02;;;20.60;47.00;;;;;;4826241;55;21025;-38
2021/12/15 23:17:42;;;;;;;288.50;221.55;;;20.60;47.00;;;;;;4748860;54;21491;-41
2021/12/15 23:22:42;;;;;;;306.50;237.02;;;20.60;47.00;;;;;;5145925;55;21073;-40
2021/12/15 23:27:48;;;;;;;286.58;217.07;;;20.60;46.90;;;;;;4834623;54;21543;-40
2021/12/15 23:32:50;;;;;;;294.45;224.62;;;20.60;46.90;;;;;;5132959;55;21499;-43
2021/12/15 23:38:10;;;;;;;298.77;228.90;;;20.60;46.90;;;;;;4773591;55;21074;-40
